createdAt,value
2017-07-30T00:00:50.759Z,14.23
2017-07-30T00:03:18.608Z,22.60
2017-07-30T00:05:46.394Z,13.83
2017-07-30T00:08:14.240Z,12.97
2017-07-30T00:10:42.048Z,17.40
2017-07-30T00:13:09.871Z,12.93
2017-07-30T00:15:37.643Z,14.60
2017-07-30T00:18:05.440Z,13.40
2017-07-30T00:20:33.264Z,10.70
2017-07-30T00:23:01.052Z,22.97
2017-07-30T00:25:28.888Z,11.67
2017-07-30T00:27:56.660Z,14.27
2017-07-30T00:30:24.502Z,10.37
2017-07-30T00:32:52.280Z,15.73
2017-07-30T00:35:20.115Z,14.90
2017-07-30T00:37:47.945Z,12.73
2017-07-30T00:40:15.766Z,11.87
2017-07-30T00:42:43.556Z,10.77
2017-07-30T00:45:11.398Z,13.90
2017-07-30T00:47:39.189Z,12.10
2017-07-30T00:50:06.989Z,11.90
2017-07-30T00:52:34.815Z,10.80
2017-07-30T00:55:02.625Z,10.90
2017-07-30T00:57:30.445Z,14.83
2017-07-30T00:59:58.232Z,17.17
2017-07-30T01:02:26.049Z,17.43
2017-07-30T01:04:53.828Z,10.80
2017-07-30T01:07:21.666Z,10.70
2017-07-30T01:09:49.443Z,12.93
2017-07-30T01:12:17.286Z,10.90
2017-07-30T01:14:45.112Z,10.90
2017-07-30T01:17:12.914Z,12.17
2017-07-30T01:19:40.737Z,10.90
2017-07-30T01:22:08.517Z,13.93
2017-07-30T01:24:36.429Z,14.50
2017-07-30T01:27:04.225Z,11.57
2017-07-30T01:29:32.062Z,11.47
2017-07-30T01:31:59.868Z,22.77
2017-07-30T01:34:27.727Z,12.87
2017-07-30T01:36:55.548Z,11.43
2017-07-30T01:39:23.404Z,16.07
2017-07-30T01:41:51.202Z,11.47
2017-07-30T01:44:18.995Z,12.17
2017-07-30T01:46:46.832Z,10.87
2017-07-30T01:49:14.620Z,12.10
2017-07-30T01:51:42.458Z,10.40
2017-07-30T01:54:10.279Z,15.20
2017-07-30T01:56:38.129Z,12.83
2017-07-30T01:59:05.933Z,14.47
2017-07-30T02:01:33.774Z,13.00
2017-07-30T02:04:01.536Z,10.87
2017-07-30T02:06:29.357Z,14.90
2017-07-30T02:08:57.157Z,11.97
2017-07-30T02:11:24.947Z,12.90
2017-07-30T02:13:52.770Z,17.60
2017-07-30T02:16:20.544Z,11.07
2017-07-30T02:18:48.382Z,11.53
2017-07-30T02:21:16.193Z,10.40
2017-07-30T02:23:44.148Z,11.20
2017-07-30T02:26:11.927Z,14.03
2017-07-30T02:28:39.764Z,13.70
2017-07-30T02:31:07.533Z,13.70
2017-07-30T02:33:35.357Z,12.10
2017-07-30T02:36:03.192Z,9.73
2017-07-30T02:38:30.985Z,11.57
2017-07-30T02:40:58.805Z,9.40
2017-07-30T02:43:26.593Z,9.90
2017-07-30T02:45:54.446Z,14.33
2017-07-30T02:48:22.224Z,15.30
2017-07-30T02:50:50.061Z,13.97
2017-07-30T02:53:17.858Z,12.80
2017-07-30T02:55:45.668Z,10.77
2017-07-30T02:58:13.449Z,11.37
2017-07-30T03:00:41.327Z,11.70
2017-07-30T03:03:09.104Z,17.30
2017-07-30T03:05:36.876Z,13.13
2017-07-30T03:08:04.716Z,11.80
2017-07-30T03:10:32.510Z,14.70
2017-07-30T03:13:00.328Z,10.93
2017-07-30T03:15:28.116Z,9.33
2017-07-30T03:17:55.946Z,10.37
2017-07-30T03:20:23.732Z,10.30
2017-07-30T03:22:51.541Z,10.63
2017-07-30T03:25:19.315Z,13.47
2017-07-30T03:27:47.168Z,10.80
2017-07-30T03:30:14.947Z,9.63
2017-07-30T03:32:42.767Z,11.63
2017-07-30T03:35:11.777Z,13.67
2017-07-30T03:37:39.652Z,15.47
2017-07-30T03:40:07.449Z,11.37
2017-07-30T03:42:35.283Z,11.47
2017-07-30T03:45:03.069Z,11.00
2017-07-30T03:47:30.925Z,10.27
2017-07-30T03:49:58.715Z,12.40
2017-07-30T03:52:26.518Z,9.23
2017-07-30T03:54:54.314Z,10.70
2017-07-30T03:57:22.143Z,18.73
2017-07-30T03:59:49.912Z,9.30
2017-07-30T04:02:17.774Z,9.63
2017-07-30T04:04:45.551Z,10.70
2017-07-30T04:07:13.340Z,13.10
2017-07-30T04:09:41.144Z,11.00
2017-07-30T04:12:08.920Z,12.57
2017-07-30T04:14:36.749Z,9.40
2017-07-30T04:17:04.562Z,10.03
2017-07-30T04:19:32.387Z,8.50
2017-07-30T04:22:00.169Z,12.10
2017-07-30T04:24:28.032Z,9.07
2017-07-30T04:26:55.832Z,12.03
2017-07-30T04:29:23.648Z,10.80
2017-07-30T04:31:51.433Z,12.50
2017-07-30T04:34:19.251Z,9.90
2017-07-30T04:36:47.065Z,8.77
2017-07-30T04:39:14.944Z,7.70
2017-07-30T04:41:42.727Z,16.80
2017-07-30T04:44:10.568Z,8.30
2017-07-30T04:46:38.343Z,9.40
2017-07-30T04:49:06.157Z,9.43
2017-07-30T04:51:33.955Z,10.87
2017-07-30T04:54:01.691Z,9.57
2017-07-30T04:56:29.460Z,8.43
2017-07-30T04:58:57.286Z,7.67
2017-07-30T05:01:25.087Z,9.07
2017-07-30T05:03:52.866Z,11.03
2017-07-30T05:06:20.706Z,13.27
2017-07-30T05:08:48.499Z,7.80
2017-07-30T05:11:16.358Z,6.90
2017-07-30T05:13:44.130Z,8.63
2017-07-30T05:16:12.022Z,9.93
2017-07-30T05:18:39.823Z,6.57
2017-07-30T05:21:07.678Z,8.40
2017-07-30T05:23:35.491Z,10.17
2017-07-30T05:26:03.358Z,6.57
2017-07-30T05:28:31.170Z,5.73
2017-07-30T05:30:59.002Z,6.40
2017-07-30T05:33:26.793Z,10.43
2017-07-30T05:35:54.730Z,12.13
2017-07-30T05:38:22.520Z,7.30
2017-07-30T05:40:50.337Z,7.73
2017-07-30T05:43:18.145Z,10.40
2017-07-30T05:45:45.997Z,8.23
2017-07-30T05:48:13.783Z,6.10
2017-07-30T05:50:41.634Z,10.50
2017-07-30T05:53:09.435Z,8.53
2017-07-30T05:55:37.314Z,10.20
2017-07-30T05:58:05.108Z,6.20
2017-07-30T06:00:33.006Z,6.67
2017-07-30T06:03:00.819Z,9.20
2017-07-30T06:05:28.657Z,6.80
2017-07-30T06:07:56.525Z,11.40
2017-07-30T06:10:24.296Z,8.03
2017-07-30T06:12:52.132Z,6.33
2017-07-30T06:15:19.969Z,10.27
2017-07-30T06:17:47.807Z,7.00
2017-07-30T06:20:15.616Z,9.83
2017-07-30T06:22:43.449Z,7.37
2017-07-30T06:25:11.231Z,8.00
2017-07-30T06:27:39.094Z,6.60
2017-07-30T06:30:06.893Z,9.00
2017-07-30T06:32:34.719Z,6.43
2017-07-30T06:35:02.516Z,6.80
2017-07-30T06:37:30.409Z,6.53
2017-07-30T06:39:58.200Z,6.07
2017-07-30T06:42:26.008Z,5.60
2017-07-30T06:44:53.778Z,8.57
2017-07-30T06:47:21.611Z,7.60
2017-07-30T06:49:49.387Z,14.20
2017-07-30T06:52:18.036Z,10.27
2017-07-30T06:54:45.827Z,9.10
2017-07-30T06:57:13.672Z,9.10
2017-07-30T06:59:41.483Z,6.90
2017-07-30T07:02:09.339Z,6.50
2017-07-30T07:04:37.107Z,9.23
2017-07-30T07:07:04.895Z,7.17
2017-07-30T07:09:32.735Z,6.70
2017-07-30T07:12:00.550Z,6.37
2017-07-30T07:14:28.413Z,7.90
2017-07-30T07:16:56.201Z,7.63
2017-07-30T07:19:24.049Z,11.27
2017-07-30T07:21:51.836Z,7.83
2017-07-30T07:24:19.694Z,8.87
2017-07-30T07:26:47.495Z,8.27
2017-07-30T07:29:15.354Z,9.40
2017-07-30T07:31:43.151Z,6.07
2017-07-30T07:34:11.114Z,9.50
2017-07-30T07:36:38.945Z,6.70
2017-07-30T07:39:06.788Z,8.23
2017-07-30T07:41:34.581Z,6.30
2017-07-30T07:44:02.403Z,5.00
2017-07-30T07:46:30.337Z,5.43
2017-07-30T07:48:58.168Z,6.40
2017-07-30T07:51:25.941Z,9.10
2017-07-30T07:53:53.702Z,7.80
2017-07-30T07:56:21.476Z,4.60
2017-07-30T07:58:49.304Z,6.63
2017-07-30T08:01:17.097Z,6.03
2017-07-30T08:03:44.891Z,4.70
2017-07-30T08:06:12.708Z,5.53
2017-07-30T08:08:40.488Z,5.10
2017-07-30T08:11:08.314Z,7.33
2017-07-30T08:13:36.114Z,8.70
2017-07-30T08:16:03.947Z,6.70
2017-07-30T08:18:31.733Z,8.73
2017-07-30T08:20:59.584Z,10.57
2017-07-30T08:23:27.380Z,6.90
2017-07-30T08:25:55.226Z,7.23
2017-07-30T08:28:23.023Z,6.97
2017-07-30T08:30:50.880Z,12.60
2017-07-30T08:33:18.673Z,7.70
2017-07-30T08:35:46.546Z,10.40
2017-07-30T08:38:14.380Z,8.03
2017-07-30T08:40:42.237Z,10.50
2017-07-30T08:43:10.024Z,7.57
2017-07-30T08:45:37.864Z,7.20
2017-07-30T08:48:05.887Z,9.80
2017-07-30T08:50:33.739Z,9.97
2017-07-30T08:53:01.536Z,8.53
2017-07-30T08:55:29.369Z,12.27
2017-07-30T08:57:57.175Z,9.93
2017-07-30T09:00:25.010Z,12.60
2017-07-30T09:02:52.850Z,9.70
2017-07-30T09:05:20.631Z,10.47
2017-07-30T09:07:48.488Z,11.90
2017-07-30T09:10:16.277Z,10.23
2017-07-30T09:12:44.089Z,8.10
2017-07-30T09:15:11.922Z,15.27
2017-07-30T09:17:39.777Z,13.73
2017-07-30T09:20:07.585Z,11.93
2017-07-30T09:22:35.445Z,11.20
2017-07-30T09:25:03.233Z,9.70
2017-07-30T09:27:31.077Z,9.60
2017-07-30T09:29:58.870Z,8.97
2017-07-30T09:32:26.716Z,7.70
2017-07-30T09:34:54.512Z,9.30
2017-07-30T09:37:22.390Z,8.87
2017-07-30T09:39:50.254Z,7.77
2017-07-30T09:42:18.089Z,17.10
2017-07-30T09:44:45.911Z,9.33
2017-07-30T09:47:13.793Z,7.20
2017-07-30T09:49:41.585Z,7.17
2017-07-30T09:52:09.439Z,8.70
2017-07-30T09:54:37.217Z,7.60
2017-07-30T09:57:05.055Z,8.00
2017-07-30T09:59:32.894Z,8.90
2017-07-30T10:02:00.718Z,10.80
2017-07-30T10:04:28.570Z,7.93
2017-07-30T10:06:56.419Z,8.03
2017-07-30T10:09:24.263Z,7.20
2017-07-30T10:11:52.044Z,7.27
2017-07-30T10:14:19.919Z,9.90
2017-07-30T10:16:47.732Z,7.27
2017-07-30T10:19:15.582Z,8.10
2017-07-30T10:21:43.376Z,11.70
2017-07-30T10:24:11.228Z,7.20
2017-07-30T10:26:39.005Z,7.77
2017-07-30T10:29:06.834Z,14.67
2017-07-30T10:31:34.651Z,7.67
2017-07-30T10:34:02.519Z,7.33
2017-07-30T10:36:30.364Z,8.60
2017-07-30T10:38:58.175Z,7.37
2017-07-30T10:41:26.065Z,7.07
2017-07-30T10:43:53.875Z,6.63
2017-07-30T10:46:21.731Z,9.77
2017-07-30T10:48:49.546Z,7.13
2017-07-30T10:51:17.453Z,8.57
2017-07-30T10:53:45.251Z,8.40
2017-07-30T10:56:13.117Z,9.10
2017-07-30T10:58:40.914Z,6.20
2017-07-30T11:01:08.737Z,8.33
2017-07-30T11:03:37.167Z,6.67
2017-07-30T11:06:05.011Z,9.57
2017-07-30T11:08:33.368Z,11.53
2017-07-30T11:11:01.208Z,6.33
2017-07-30T11:13:29.011Z,6.63
2017-07-30T11:15:56.847Z,6.73
2017-07-30T11:18:24.681Z,8.10
2017-07-30T11:20:52.539Z,7.40
2017-07-30T11:23:20.328Z,6.53
2017-07-30T11:25:48.152Z,5.57
2017-07-30T11:28:15.997Z,6.37
2017-07-30T11:30:43.786Z,9.67
2017-07-30T11:33:11.645Z,5.60
2017-07-30T11:35:39.480Z,5.70
2017-07-30T11:38:07.421Z,6.10
2017-07-30T11:40:35.228Z,7.97
2017-07-30T11:43:03.064Z,5.17
2017-07-30T11:45:30.854Z,6.00
2017-07-30T11:47:58.673Z,4.93
2017-07-30T11:50:26.446Z,5.07
2017-07-30T11:52:54.317Z,4.47
2017-07-30T11:55:22.133Z,4.17
2017-07-30T11:57:49.977Z,5.20
2017-07-30T12:00:17.763Z,4.93
2017-07-30T12:02:45.630Z,4.17
2017-07-30T12:05:13.470Z,4.53
2017-07-30T12:07:41.272Z,5.43
2017-07-30T12:10:09.134Z,5.93
2017-07-30T12:12:36.923Z,3.90
2017-07-30T12:15:04.792Z,3.97
2017-07-30T12:17:32.576Z,4.40
2017-07-30T12:20:00.398Z,4.30
2017-07-30T12:22:28.196Z,5.80
2017-07-30T12:24:56.065Z,5.07
2017-07-30T12:27:23.864Z,4.23
2017-07-30T12:29:51.711Z,4.10
2017-07-30T12:32:19.564Z,3.73
2017-07-30T12:34:47.331Z,7.30
2017-07-30T12:37:15.216Z,4.13
2017-07-30T12:39:43.013Z,3.10
2017-07-30T12:42:10.836Z,3.50
2017-07-30T12:44:38.626Z,3.37
2017-07-30T12:47:06.470Z,6.77
2017-07-30T12:49:34.248Z,3.47
2017-07-30T12:52:02.088Z,6.20
2017-07-30T12:54:29.889Z,4.00
2017-07-30T12:56:57.761Z,3.87
2017-07-30T12:59:25.593Z,4.47
2017-07-30T13:01:53.405Z,3.50
2017-07-30T13:04:21.213Z,4.67
2017-07-30T13:06:49.009Z,6.10
2017-07-30T13:09:16.865Z,5.67
2017-07-30T13:11:44.644Z,5.37
2017-07-30T13:14:12.477Z,3.47
2017-07-30T13:16:40.270Z,3.60
2017-07-30T13:19:08.087Z,3.27
2017-07-30T13:21:35.882Z,3.13
2017-07-30T13:24:03.742Z,3.40
2017-07-30T13:26:31.567Z,6.30
2017-07-30T13:28:59.364Z,7.37
2017-07-30T13:31:27.188Z,3.43
2017-07-30T13:33:54.982Z,3.63
2017-07-30T13:36:22.845Z,3.47
2017-07-30T13:38:50.644Z,3.77
2017-07-30T13:41:18.504Z,3.47
2017-07-30T13:43:46.320Z,3.57
2017-07-30T13:46:14.233Z,6.27
2017-07-30T13:48:42.033Z,5.10
2017-07-30T13:51:09.870Z,3.90
2017-07-30T13:53:37.664Z,3.73
2017-07-30T13:56:05.537Z,2.50
2017-07-30T13:58:33.335Z,3.07
2017-07-30T14:01:01.136Z,5.23
2017-07-30T14:03:28.985Z,3.07
2017-07-30T14:05:56.788Z,2.70
2017-07-30T14:08:24.656Z,3.10
2017-07-30T14:10:52.488Z,3.10
2017-07-30T14:13:20.332Z,3.33
2017-07-30T14:15:48.156Z,6.47
2017-07-30T14:18:15.988Z,2.70
2017-07-30T14:20:43.841Z,2.70
2017-07-30T14:23:11.699Z,3.00
2017-07-30T14:25:39.492Z,2.57
2017-07-30T14:28:07.264Z,2.50
2017-07-30T14:30:35.269Z,3.13
2017-07-30T14:33:03.074Z,2.63
2017-07-30T14:35:30.893Z,4.30
2017-07-30T14:37:58.716Z,2.80
2017-07-30T14:40:26.571Z,2.63
2017-07-30T14:42:54.389Z,3.37
2017-07-30T14:45:22.209Z,2.47
2017-07-30T14:47:49.979Z,2.93
2017-07-30T14:50:17.844Z,2.20
2017-07-30T14:52:45.619Z,6.27
2017-07-30T14:55:13.425Z,2.33
2017-07-30T14:57:41.268Z,2.40
2017-07-30T15:00:09.093Z,2.20
2017-07-30T15:02:36.958Z,2.50
2017-07-30T15:05:04.746Z,2.10
2017-07-30T15:07:32.598Z,2.40
2017-07-30T15:10:00.393Z,2.50
2017-07-30T15:12:28.235Z,2.70
2017-07-30T15:14:56.040Z,2.20
2017-07-30T15:17:23.924Z,2.60
2017-07-30T15:19:51.706Z,3.27
2017-07-30T15:22:19.488Z,2.70
2017-07-30T15:24:47.345Z,3.17
2017-07-30T15:27:15.128Z,2.97
2017-07-30T15:29:43.017Z,2.83
2017-07-30T15:32:10.861Z,4.30
2017-07-30T15:34:38.702Z,2.97
2017-07-30T15:37:06.589Z,2.70
2017-07-30T15:39:34.476Z,2.70
2017-07-30T15:42:02.278Z,2.40
2017-07-30T15:44:30.134Z,8.33
2017-07-30T15:46:58.292Z,3.20
2017-07-30T15:49:26.119Z,4.83
2017-07-30T15:51:54.003Z,3.60
2017-07-30T15:54:21.822Z,2.30
2017-07-30T15:56:49.679Z,2.47
2017-07-30T15:59:17.498Z,2.50
2017-07-30T16:01:45.317Z,2.50
2017-07-30T16:04:13.141Z,2.80
2017-07-30T16:06:41.020Z,2.50
2017-07-30T16:09:09.928Z,10.53
2017-07-30T16:11:37.797Z,3.27
2017-07-30T16:14:05.597Z,3.33
2017-07-30T16:16:33.325Z,4.17
2017-07-30T16:19:01.195Z,3.00
2017-07-30T16:21:28.922Z,3.80
2017-07-30T16:23:56.765Z,3.53
2017-07-30T16:26:24.580Z,2.83
2017-07-30T16:28:52.341Z,2.40
2017-07-30T16:31:23.135Z,2.67
2017-07-30T16:33:51.191Z,2.73
2017-07-30T16:36:18.892Z,2.30
2017-07-30T16:38:46.671Z,2.57
2017-07-30T16:41:14.367Z,2.77
2017-07-30T16:43:42.089Z,6.13
2017-07-30T16:46:09.920Z,6.17
2017-07-30T16:48:38.640Z,2.97
2017-07-30T16:51:06.490Z,2.50
2017-07-30T16:53:34.272Z,2.97
2017-07-30T16:56:02.134Z,4.63
2017-07-30T16:58:29.916Z,4.07
2017-07-30T17:00:57.761Z,3.43
2017-07-30T17:03:25.593Z,2.80
2017-07-30T17:05:53.436Z,2.80
2017-07-30T17:08:21.247Z,2.93
2017-07-30T17:10:49.052Z,2.73
2017-07-30T17:13:16.889Z,3.17
2017-07-30T17:15:44.704Z,3.07
2017-07-30T17:18:12.559Z,2.70
2017-07-30T17:20:40.331Z,3.87
2017-07-30T17:23:08.169Z,3.10
2017-07-30T17:25:35.976Z,3.00
2017-07-30T17:28:03.801Z,3.03
2017-07-30T17:30:31.585Z,3.50
2017-07-30T17:32:59.424Z,3.43
2017-07-30T17:35:27.269Z,3.37
2017-07-30T17:37:55.204Z,3.60
2017-07-30T17:40:23.032Z,2.87
2017-07-30T17:42:50.814Z,9.80
2017-07-30T17:45:18.674Z,6.07
2017-07-30T17:47:46.472Z,7.17
2017-07-30T17:50:14.344Z,6.03
2017-07-30T17:52:42.177Z,2.90
2017-07-30T17:55:10.046Z,2.60
2017-07-30T17:57:37.833Z,2.43
2017-07-30T18:00:05.695Z,2.27
2017-07-30T18:02:33.531Z,3.27
2017-07-30T18:05:01.330Z,2.87
2017-07-30T18:07:29.174Z,5.10
2017-07-30T18:09:56.968Z,4.60
2017-07-30T18:12:24.799Z,3.90
2017-07-30T18:14:52.592Z,4.63
2017-07-30T18:17:20.437Z,4.00
2017-07-30T18:19:48.238Z,5.23
2017-07-30T18:22:16.103Z,2.70
2017-07-30T18:24:43.899Z,2.83
2017-07-30T18:27:11.760Z,10.30
2017-07-30T18:29:39.542Z,6.03
2017-07-30T18:32:07.357Z,2.83
2017-07-30T18:34:35.218Z,2.70
2017-07-30T18:37:03.056Z,6.00
2017-07-30T18:39:30.903Z,3.27
2017-07-30T18:41:58.743Z,3.00
2017-07-30T18:44:26.672Z,3.10
2017-07-30T18:46:54.481Z,3.00
2017-07-30T18:49:22.367Z,4.00
2017-07-30T18:51:50.171Z,5.00
2017-07-30T18:54:17.955Z,3.17
2017-07-30T18:56:45.799Z,3.07
2017-07-30T18:59:13.581Z,3.00
2017-07-30T19:01:41.447Z,5.20
2017-07-30T19:04:09.294Z,3.10
2017-07-30T19:06:37.152Z,3.10
2017-07-30T19:09:05.015Z,4.03
2017-07-30T19:11:32.869Z,3.50
2017-07-30T19:14:00.717Z,3.87
2017-07-30T19:16:28.587Z,3.30
2017-07-30T19:18:56.415Z,3.53
2017-07-30T19:21:24.252Z,9.13
2017-07-30T19:23:51.996Z,7.03
2017-07-30T19:26:19.803Z,5.30
2017-07-30T19:28:47.704Z,4.80
2017-07-30T19:31:15.525Z,4.47
2017-07-30T19:33:43.425Z,4.23
2017-07-30T19:36:11.301Z,3.47
2017-07-30T19:38:39.174Z,5.97
2017-07-30T19:41:06.971Z,3.73
2017-07-30T19:43:34.867Z,3.60
2017-07-30T19:46:02.666Z,4.43
2017-07-30T19:48:30.503Z,6.13
2017-07-30T19:50:58.343Z,4.97
2017-07-30T19:53:26.171Z,3.57
2017-07-30T19:55:54.006Z,4.57
2017-07-30T19:58:21.824Z,4.40
2017-07-30T20:00:49.655Z,4.60
2017-07-30T20:03:17.446Z,6.33
2017-07-30T20:05:45.278Z,5.97
2017-07-30T20:08:13.060Z,5.97
2017-07-30T20:10:40.911Z,3.90
2017-07-30T20:13:08.696Z,6.80
2017-07-30T20:15:36.510Z,5.20
2017-07-30T20:18:04.367Z,4.10
2017-07-30T20:20:32.669Z,3.83
2017-07-30T20:23:00.731Z,7.00
2017-07-30T20:25:28.539Z,3.47
2017-07-30T20:27:56.411Z,8.70
2017-07-30T20:30:24.212Z,4.10
2017-07-30T20:32:52.060Z,4.87
2017-07-30T20:35:19.886Z,3.47
2017-07-30T20:37:47.907Z,3.20
2017-07-30T20:40:15.736Z,10.73
2017-07-30T20:42:43.544Z,5.10
2017-07-30T20:45:11.391Z,4.00
2017-07-30T20:47:39.207Z,4.93
2017-07-30T20:50:07.060Z,3.63
2017-07-30T20:52:34.863Z,3.97
2017-07-30T20:55:02.727Z,9.90
2017-07-30T20:57:30.518Z,4.33
2017-07-30T20:59:58.348Z,4.93
2017-07-30T21:02:26.137Z,9.87
2017-07-30T21:04:54.021Z,3.70
2017-07-30T21:07:21.817Z,3.63
2017-07-30T21:09:49.598Z,4.50
2017-07-30T21:12:17.465Z,3.60
2017-07-30T21:14:45.265Z,3.70
2017-07-30T21:17:13.121Z,3.77
2017-07-30T21:19:40.912Z,6.73
2017-07-30T21:22:08.764Z,4.27
2017-07-30T21:24:36.591Z,4.43
2017-07-30T21:27:04.436Z,7.20
2017-07-30T21:29:32.243Z,4.00
2017-07-30T21:32:00.073Z,3.67
2017-07-30T21:34:27.856Z,5.20
2017-07-30T21:36:55.682Z,3.23
2017-07-30T21:39:23.515Z,3.53
2017-07-30T21:41:51.300Z,4.80
2017-07-30T21:44:19.218Z,3.57
2017-07-30T21:46:47.021Z,3.47
2017-07-30T21:49:14.854Z,3.80
2017-07-30T21:51:42.655Z,6.90
2017-07-30T21:54:10.480Z,3.90
2017-07-30T21:56:38.281Z,3.70
2017-07-30T21:59:06.187Z,4.00
2017-07-30T22:01:33.980Z,5.97
2017-07-30T22:04:01.818Z,6.73
2017-07-30T22:06:29.631Z,6.80
2017-07-30T22:08:57.421Z,4.03
2017-07-30T22:11:25.258Z,5.57
2017-07-30T22:13:53.047Z,5.27
2017-07-30T22:16:20.895Z,4.60
2017-07-30T22:18:48.686Z,5.87
2017-07-30T22:21:16.504Z,4.53
2017-07-30T22:23:44.280Z,4.00
2017-07-30T22:26:12.162Z,5.50
2017-07-30T22:28:39.941Z,6.67
2017-07-30T22:31:07.760Z,4.10
2017-07-30T22:33:35.601Z,4.47
2017-07-30T22:36:03.388Z,3.87
2017-07-30T22:38:31.318Z,6.07
2017-07-30T22:40:59.104Z,3.17
2017-07-30T22:43:26.946Z,4.90
2017-07-30T22:45:54.806Z,6.80
2017-07-30T22:48:22.633Z,4.20
2017-07-30T22:50:50.444Z,4.20
2017-07-30T22:53:18.260Z,4.00
2017-07-30T22:55:46.028Z,5.90
2017-07-30T22:58:13.860Z,4.47
2017-07-30T23:00:41.637Z,4.40
2017-07-30T23:03:09.457Z,3.60
2017-07-30T23:05:37.288Z,4.47
2017-07-30T23:08:05.078Z,5.60
2017-07-30T23:10:32.881Z,5.20
2017-07-30T23:13:00.640Z,4.30
2017-07-30T23:15:28.473Z,4.27
2017-07-30T23:17:56.269Z,4.50
2017-07-30T23:20:24.101Z,4.37
2017-07-30T23:22:51.866Z,4.20
2017-07-30T23:25:19.721Z,6.00
2017-07-30T23:27:47.491Z,5.60
2017-07-30T23:30:15.261Z,5.73
2017-07-30T23:32:43.064Z,5.80
2017-07-30T23:35:10.845Z,4.73
2017-07-30T23:37:38.696Z,4.93
2017-07-30T23:40:06.477Z,3.70
2017-07-30T23:42:34.284Z,6.87
2017-07-30T23:45:02.059Z,6.20
2017-07-30T23:47:29.889Z,4.27
2017-07-30T23:49:57.661Z,5.10
2017-07-30T23:52:25.452Z,4.50
2017-07-30T23:54:53.237Z,7.43
2017-07-30T23:57:21.022Z,4.23
2017-07-30T23:59:48.851Z,4.70
